Terminal Aerodrome Forecast
Issued by NWS Charleston, WV

Current Version | Previous Version | Text Only | Print | Product List | Glossary Off
Versions: 1 2 3 4 5 6 7 8 9 10 11 12 13 14 15 16 17 18 19 20 21 22 23 24 25 26 27

000
FTUS41 KRLX 182000 AAA
TAFCRW
TAF AMD
KCRW 182026Z 1820/1918 23003KT 4SM -SHRA BR BKN009 OVC020
     FM190000 22004KT 6SM BR SCT010 BKN025
      TEMPO 1900/1902 4SM -SHRA BR
     FM190200 23003KT 4SM BR BKN020
     FM190500 00000KT 1SM BR BKN002
     FM191300 VRB03KT 4SM BR BKN010
     FM191500 21003KT 5SM BR BKN030=

USA.gov is the U.S. government's official web portal to all federal, state and local government web resources and services.